Aeroporto :
LOGIN :

Iscrizione | Disclaimer

   EN    FR    IT 

 










Sommario :    VFR   VFR Marginale   IFR   IFR Intensivo   IFR Molto Intensivo
Visibilità : 
Base nubi : 
>= 8 km
>= 3000ft
5 / 8 km
1000 / 3000 ft
1500m / 5 km
500 / 1000 ft
800 / 1500m
200 / 500 ft
< 800m
< 200 ft
Simboli :   Temporali  Nebbia  Neve Forte  Precipitazioni Forti  Vento > 20 kt
SIGMETs :   Varie  Temporali  Ghiacco  Turbolenza  Onda orograficha  Ceneri Vulcaniche






- Altitudine del aeroporto : 357 ft
- Codice IATA : TUF


LFOT - Tours

ULTIMO METAR :
  • 160700Z AUTO 14004KT 9999 FEW033/// SCT056/// OVC066/// ///TCU 09/08 Q1003 TEMPO 3000 RA BKN006 SCT020TCU

METARs OBSOLETI :
  • 160630Z AUTO 15005KT 9999 BKN029/// BKN037/// OVC058/// ///TCU 09/09 Q1003 TEMPO 3000 RA BKN006 SCT020TCU
  • 160600Z AUTO 14005KT 9999 -RA SCT028/// BKN039/// BKN048/// ///TCU 09/09 Q1004 TEMPO 3000 RA BKN006 SCT020TCU
  • 160530Z AUTO 15005KT 6000 DZ SCT014 BKN020 OVC032 09/09 Q1004 TEMPO 3000 RA BKN006 SCT020TCU
  • 160500Z AUTO 15006KT 120V180 9999 -RADZ FEW005 BKN018 BKN023 09/09 Q1004 TEMPO 3000 RA BKN006 SCT020TCU
  • 160430Z AUTO 14007KT 8000 -RA BKN006/// OVC013/// ///TCU 09/09 Q1004 TEMPO 3000 RA

TAF TAF LFOT
Valido dal 16 a 06 ore il 17 a 06 ore UTC


160500Z 1606/1706 16005KT 9999 BKN020
TEMPO 1606/1609 3000 RA BKN006 SCT020TCU
TEMPO 1609/1612 BKN012
BECMG 1612/1615 CAVOK



MetMap, La meteo Aeronautica in un colpo d'occhio ! - Copyright ORBIFLY Dicembre 2007 - Disclaimer

ORBIFLY MET'MAP TEAM :

Programmazione e sviluppo : Alexandra Zaïnal
Concezione : Baudouin d'Aumeries
Aiuto per la programmazione : Marc-Olivier Méhu
Supporto tecnico e logistico : Manuel Goepfert
Aiuto per la traduzione : Arnaldo La Scala

Contatto : metmap@orbifly.com




FONTI E CREDITI :

   NOAA